Terminal Aerodrome Forecast
Issued by NWS

Home | Current Version | Previous Version | Text Only | Print | Product List | Glossary On
Versions: 1 2 3 4 5 6 7 8 9 10 11 12 13 14 15 16 17 18 19 20 21 22 23 24 25 26 27
000
FTUS43 KPAH 300216 AAA
TAFCGI
TAF AMD
KCGI 300216Z 3002/3024 VRB06KT 5SM -TSRA OVC040CB
      TEMPO 3003/3005 VRB15G30KT 1SM TSRA BKN025CB
     FM300600 18018G27KT 6SM -SHRA FEW010 OVC050
     FM301300 17020G29KT 3SM TSRA BKN006CB OVC025
     FM301900 19020G27KT 6SM -SHRA SCT006 BKN025=

USA.gov is the U.S. government's official web portal to all federal, state and local government web resources and services.